sensor_id;sensor_type;location;lat;lon;timestamp;pressure;altitude;pressure_sealevel;temperature;humidity
42125;BME280;27787;44.594;11.046;2023-01-30T00:00:07;101867.09;;;3.10;76.57
42125;BME280;27787;44.594;11.046;2023-01-30T00:02:51;101868.44;;;3.18;76.37
42125;BME280;27787;44.594;11.046;2023-01-30T00:05:36;101860.03;;;3.24;75.67
42125;BME280;27787;44.594;11.046;2023-01-30T00:08:20;101865.75;;;3.33;75.06
42125;BME280;27787;44.594;11.046;2023-01-30T00:11:10;101863.38;;;3.38;74.66
42125;BME280;27787;44.594;11.046;2023-01-30T00:13:54;101862.75;;;3.42;74.60
42125;BME280;27787;44.594;11.046;2023-01-30T00:16:38;101847.84;;;3.39;74.44
42125;BME280;27787;44.594;11.046;2023-01-30T00:19:23;101851.34;;;3.40;74.41
42125;BME280;27787;44.594;11.046;2023-01-30T00:22:06;101839.09;;;3.39;74.13
42125;BME280;27787;44.594;11.046;2023-01-30T00:24:50;101842.34;;;3.35;74.01
42125;BME280;27787;44.594;11.046;2023-01-30T00:27:34;101836.88;;;3.30;74.11
42125;BME280;27787;44.594;11.046;2023-01-30T00:30:20;101841.38;;;3.16;74.02
42125;BME280;27787;44.594;11.046;2023-01-30T00:33:04;101833.41;;;2.99;75.01
42125;BME280;27787;44.594;11.046;2023-01-30T00:35:49;101831.22;;;2.90;75.95
42125;BME280;27787;44.594;11.046;2023-01-30T00:38:33;101829.41;;;2.89;76.20
42125;BME280;27787;44.594;11.046;2023-01-30T00:41:17;101834.44;;;2.86;76.01
42125;BME280;27787;44.594;11.046;2023-01-30T00:44:02;101835.66;;;2.76;76.19
42125;BME280;27787;44.594;11.046;2023-01-30T00:47:05;101837.75;;;2.67;76.74
42125;BME280;27787;44.594;11.046;2023-01-30T00:49:49;101823.09;;;2.69;77.51
42125;BME280;27787;44.594;11.046;2023-01-30T00:52:33;101825.31;;;2.78;76.99
42125;BME280;27787;44.594;11.046;2023-01-30T00:55:17;101823.22;;;2.87;76.25
42125;BME280;27787;44.594;11.046;2023-01-30T00:58:01;101815.56;;;2.90;75.79
42125;BME280;27787;44.594;11.046;2023-01-30T01:00:45;101814.91;;;2.94;75.61
42125;BME280;27787;44.594;11.046;2023-01-30T01:03:30;101813.13;;;2.93;75.24
42125;BME280;27787;44.594;11.046;2023-01-30T01:06:15;101808.03;;;2.80;75.36
42125;BME280;27787;44.594;11.046;2023-01-30T01:08:59;101813.47;;;2.68;75.81
42125;BME280;27787;44.594;11.046;2023-01-30T01:11:43;101804.31;;;2.60;76.60
42125;BME280;27787;44.594;11.046;2023-01-30T01:14:27;101806.03;;;2.59;76.80
42125;BME280;27787;44.594;11.046;2023-01-30T01:17:11;101804.31;;;2.60;76.83
42125;BME280;27787;44.594;11.046;2023-01-30T01:19:55;101798.41;;;2.62;76.81
42125;BME280;27787;44.594;11.046;2023-01-30T01:22:40;101801.28;;;2.52;76.42
42125;BME280;27787;44.594;11.046;2023-01-30T01:25:24;101794.00;;;2.47;77.19
42125;BME280;27787;44.594;11.046;2023-01-30T01:28:09;101796.19;;;2.39;77.24
42125;BME280;27787;44.594;11.046;2023-01-30T01:30:53;101798.25;;;2.45;77.88
42125;BME280;27787;44.594;11.046;2023-01-30T01:33:37;101785.81;;;2.55;77.35
42125;BME280;27787;44.594;11.046;2023-01-30T01:36:22;101787.97;;;2.62;76.73
42125;BME280;27787;44.594;11.046;2023-01-30T01:39:06;101785.53;;;2.65;76.64
42125;BME280;27787;44.594;11.046;2023-01-30T01:41:50;101779.66;;;2.70;76.21
42125;BME280;27787;44.594;11.046;2023-01-30T01:48:24;101777.06;;;2.70;76.25
42125;BME280;27787;44.594;11.046;2023-01-30T01:51:45;101765.91;;;2.72;75.75
42125;BME280;27787;44.594;11.046;2023-01-30T01:54:39;101763.41;;;2.74;75.43
42125;BME280;27787;44.594;11.046;2023-01-30T01:57:41;101766.72;;;2.71;75.44
42125;BME280;27787;44.594;11.046;2023-01-30T02:00:27;101764.03;;;2.70;75.65
42125;BME280;27787;44.594;11.046;2023-01-30T02:03:17;101759.22;;;2.61;75.37
42125;BME280;27787;44.594;11.046;2023-01-30T02:06:04;101765.09;;;2.42;75.28
42125;BME280;27787;44.594;11.046;2023-01-30T02:08:51;101753.75;;;2.25;76.74
42125;BME280;27787;44.594;11.046;2023-01-30T02:11:53;101749.88;;;2.19;77.27
42125;BME280;27787;44.594;11.046;2023-01-30T02:14:40;101750.69;;;2.18;77.17
42125;BME280;27787;44.594;11.046;2023-01-30T02:17:25;101752.69;;;2.22;77.49
42125;BME280;27787;44.594;11.046;2023-01-30T02:20:27;101750.25;;;2.25;77.10
42125;BME280;27787;44.594;11.046;2023-01-30T02:36:48;101741.28;;;2.51;74.84
42125;BME280;27787;44.594;11.046;2023-01-30T02:39:46;101734.50;;;2.54;73.92
42125;BME280;27787;44.594;11.046;2023-01-30T02:48:52;101718.97;;;2.72;73.59
42125;BME280;27787;44.594;11.046;2023-01-30T02:51:41;101715.81;;;2.78;73.32
42125;BME280;27787;44.594;11.046;2023-01-30T02:54:26;101714.34;;;2.83;73.33
42125;BME280;27787;44.594;11.046;2023-01-30T02:57:21;101707.56;;;2.86;72.76
42125;BME280;27787;44.594;11.046;2023-01-30T03:00:10;101707.84;;;2.91;72.77
42125;BME280;27787;44.594;11.046;2023-01-30T03:03:33;101706.13;;;2.91;72.73
42125;BME280;27787;44.594;11.046;2023-01-30T03:09:10;101700.84;;;2.90;72.32
42125;BME280;27787;44.594;11.046;2023-01-30T03:12:08;101699.88;;;2.88;72.52
42125;BME280;27787;44.594;11.046;2023-01-30T03:15:05;101691.94;;;2.86;72.71
42125;BME280;27787;44.594;11.046;2023-01-30T03:17:53;101692.19;;;2.91;72.63
42125;BME280;27787;44.594;11.046;2023-01-30T03:20:39;101690.31;;;2.88;72.31
42125;BME280;27787;44.594;11.046;2023-01-30T03:23:24;101684.03;;;2.85;72.23
42125;BME280;27787;44.594;11.046;2023-01-30T03:26:13;101684.63;;;2.79;72.41
42125;BME280;27787;44.594;11.046;2023-01-30T03:29:01;101691.31;;;2.74;72.59
42125;BME280;27787;44.594;11.046;2023-01-30T03:31:46;101691.94;;;2.70;72.18
42125;BME280;27787;44.594;11.046;2023-01-30T03:34:31;101683.88;;;2.65;72.39
42125;BME280;27787;44.594;11.046;2023-01-30T03:37:16;101684.69;;;2.64;72.33
42125;BME280;27787;44.594;11.046;2023-01-30T03:40:01;101688.19;;;2.65;72.62
42125;BME280;27787;44.594;11.046;2023-01-30T03:42:45;101689.16;;;2.67;72.32
42125;BME280;27787;44.594;11.046;2023-01-30T03:45:29;101688.19;;;2.65;72.15
42125;BME280;27787;44.594;11.046;2023-01-30T03:48:13;101691.47;;;2.61;72.62
42125;BME280;27787;44.594;11.046;2023-01-30T03:50:58;101687.38;;;2.50;72.90
42125;BME280;27787;44.594;11.046;2023-01-30T03:53:42;101682.69;;;2.44;73.13
42125;BME280;27787;44.594;11.046;2023-01-30T03:56:30;101687.59;;;2.38;73.37
42125;BME280;27787;44.594;11.046;2023-01-30T03:59:15;101680.59;;;2.37;73.63
42125;BME280;27787;44.594;11.046;2023-01-30T04:02:06;101677.91;;;2.35;74.02
42125;BME280;27787;44.594;11.046;2023-01-30T04:04:52;101684.00;;;2.36;73.91
42125;BME280;27787;44.594;11.046;2023-01-30T04:07:37;101679.78;;;2.38;73.61
42125;BME280;27787;44.594;11.046;2023-01-30T04:10:21;101676.13;;;2.34;73.54
42125;BME280;27787;44.594;11.046;2023-01-30T04:13:06;101676.56;;;2.27;73.76
42125;BME280;27787;44.594;11.046;2023-01-30T04:15:51;101669.00;;;2.32;74.02
42125;BME280;27787;44.594;11.046;2023-01-30T04:18:54;101669.97;;;2.34;73.89
42125;BME280;27787;44.594;11.046;2023-01-30T04:21:41;101669.28;;;2.36;73.71
42125;BME280;27787;44.594;11.046;2023-01-30T04:24:26;101660.47;;;2.34;73.70
42125;BME280;27787;44.594;11.046;2023-01-30T04:27:09;101656.19;;;2.20;73.65
42125;BME280;27787;44.594;11.046;2023-01-30T04:30:00;101655.44;;;2.06;74.41
42125;BME280;27787;44.594;11.046;2023-01-30T04:32:44;101651.34;;;1.95;74.52
42125;BME280;27787;44.594;11.046;2023-01-30T04:35:28;101650.22;;;1.75;75.09
42125;BME280;27787;44.594;11.046;2023-01-30T04:38:12;101642.53;;;1.62;76.14
42125;BME280;27787;44.594;11.046;2023-01-30T04:40:57;101639.53;;;1.56;76.41
42125;BME280;27787;44.594;11.046;2023-01-30T04:43:44;101640.09;;;1.51;76.62
42125;BME280;27787;44.594;11.046;2023-01-30T04:46:41;101651.16;;;1.46;76.50
42125;BME280;27787;44.594;11.046;2023-01-30T04:49:25;101649.25;;;1.29;76.91
42125;BME280;27787;44.594;11.046;2023-01-30T04:52:11;101634.53;;;1.15;77.85
42125;BME280;27787;44.594;11.046;2023-01-30T04:54:55;101643.78;;;1.10;78.09
42125;BME280;27787;44.594;11.046;2023-01-30T04:57:40;101636.16;;;0.98;78.57
42125;BME280;27787;44.594;11.046;2023-01-30T05:00:24;101629.41;;;0.87;79.67
42125;BME280;27787;44.594;11.046;2023-01-30T05:03:14;101623.78;;;0.79;79.84
42125;BME280;27787;44.594;11.046;2023-01-30T05:05:58;101623.38;;;0.73;80.28
42125;BME280;27787;44.594;11.046;2023-01-30T05:08:42;101619.63;;;0.68;80.77
42125;BME280;27787;44.594;11.046;2023-01-30T05:11:27;101611.91;;;0.70;80.80
42125;BME280;27787;44.594;11.046;2023-01-30T05:14:12;101596.25;;;0.68;81.01
42125;BME280;27787;44.594;11.046;2023-01-30T05:16:56;101598.91;;;0.70;80.96
42125;BME280;27787;44.594;11.046;2023-01-30T05:19:40;101588.44;;;0.68;81.40
42125;BME280;27787;44.594;11.046;2023-01-30T05:22:24;101581.53;;;0.69;81.59
42125;BME280;27787;44.594;11.046;2023-01-30T05:25:08;101580.75;;;0.70;81.52
42125;BME280;27787;44.594;11.046;2023-01-30T05:27:53;101579.66;;;0.66;81.61
42125;BME280;27787;44.594;11.046;2023-01-30T05:30:37;101574.34;;;0.65;81.88
42125;BME280;27787;44.594;11.046;2023-01-30T05:33:21;101562.16;;;0.64;81.54
42125;BME280;27787;44.594;11.046;2023-01-30T05:36:06;101556.78;;;0.61;81.20
42125;BME280;27787;44.594;11.046;2023-01-30T05:38:50;101555.00;;;0.59;81.18
42125;BME280;27787;44.594;11.046;2023-01-30T05:41:34;101552.66;;;0.64;80.91
42125;BME280;27787;44.594;11.046;2023-01-30T05:44:21;101551.34;;;0.71;80.36
42125;BME280;27787;44.594;11.046;2023-01-30T05:47:05;101553.06;;;0.70;79.78
42125;BME280;27787;44.594;11.046;2023-01-30T05:49:49;101558.25;;;0.70;79.75
42125;BME280;27787;44.594;11.046;2023-01-30T05:52:33;101567.75;;;0.70;79.78
42125;BME280;27787;44.594;11.046;2023-01-30T05:55:17;101571.31;;;0.72;79.77
42125;BME280;27787;44.594;11.046;2023-01-30T05:58:01;101574.09;;;0.75;79.65
42125;BME280;27787;44.594;11.046;2023-01-30T06:00:45;101576.19;;;0.80;79.56
42125;BME280;27787;44.594;11.046;2023-01-30T06:03:29;101582.00;;;0.91;78.99
42125;BME280;27787;44.594;11.046;2023-01-30T06:06:14;101585.69;;;0.95;78.59
42125;BME280;27787;44.594;11.046;2023-01-30T06:08:58;101596.25;;;0.98;78.43
42125;BME280;27787;44.594;11.046;2023-01-30T06:11:42;101603.97;;;0.96;78.54
42125;BME280;27787;44.594;11.046;2023-01-30T06:14:26;101605.50;;;0.93;78.33
42125;BME280;27787;44.594;11.046;2023-01-30T06:17:10;101626.38;;;0.79;78.88
42125;BME280;27787;44.594;11.046;2023-01-30T06:19:54;101627.81;;;0.61;79.89
42125;BME280;27787;44.594;11.046;2023-01-30T06:22:38;101629.16;;;0.54;80.68
42125;BME280;27787;44.594;11.046;2023-01-30T06:25:23;101629.44;;;0.59;80.39
42125;BME280;27787;44.594;11.046;2023-01-30T06:28:07;101632.78;;;0.71;80.37
42125;BME280;27787;44.594;11.046;2023-01-30T06:30:51;101648.66;;;0.91;79.84
42125;BME280;27787;44.594;11.046;2023-01-30T06:33:36;101645.56;;;1.11;79.21
42125;BME280;27787;44.594;11.046;2023-01-30T06:36:20;101635.72;;;1.35;79.17
42125;BME280;27787;44.594;11.046;2023-01-30T06:39:04;101641.72;;;1.48;78.19
42125;BME280;27787;44.594;11.046;2023-01-30T06:41:48;101642.34;;;1.59;78.18
42125;BME280;27787;44.594;11.046;2023-01-30T06:44:32;101655.44;;;1.61;76.79
42125;BME280;27787;44.594;11.046;2023-01-30T06:47:16;101664.78;;;1.57;76.46
42125;BME280;27787;44.594;11.046;2023-01-30T06:50:00;101673.94;;;1.51;76.24
42125;BME280;27787;44.594;11.046;2023-01-30T06:52:46;101668.25;;;1.43;76.18
42125;BME280;27787;44.594;11.046;2023-01-30T06:55:31;101664.50;;;1.38;75.79
42125;BME280;27787;44.594;11.046;2023-01-30T06:58:17;101670.59;;;1.38;75.56
42125;BME280;27787;44.594;11.046;2023-01-30T07:01:01;101669.06;;;1.42;74.94
42125;BME280;27787;44.594;11.046;2023-01-30T07:03:46;101670.44;;;1.50;74.64
42125;BME280;27787;44.594;11.046;2023-01-30T07:06:31;101670.59;;;1.53;74.54
42125;BME280;27787;44.594;11.046;2023-01-30T07:09:16;101674.38;;;1.58;74.80
42125;BME280;27787;44.594;11.046;2023-01-30T07:12:00;101669.53;;;1.64;74.60
42125;BME280;27787;44.594;11.046;2023-01-30T07:14:44;101681.38;;;1.74;74.27
42125;BME280;27787;44.594;11.046;2023-01-30T07:17:29;101680.00;;;1.81;74.01
42125;BME280;27787;44.594;11.046;2023-01-30T07:20:12;101683.84;;;1.87;74.07
42125;BME280;27787;44.594;11.046;2023-01-30T07:22:57;101683.13;;;1.90;74.44
42125;BME280;27787;44.594;11.046;2023-01-30T07:25:41;101672.78;;;1.91;74.36
42125;BME280;27787;44.594;11.046;2023-01-30T07:28:25;101667.44;;;1.88;74.07
42125;BME280;27787;44.594;11.046;2023-01-30T07:31:10;101657.75;;;1.86;74.11
42125;BME280;27787;44.594;11.046;2023-01-30T07:33:54;101649.66;;;1.81;73.92
42125;BME280;27787;44.594;11.046;2023-01-30T07:36:38;101654.69;;;1.78;74.28
42125;BME280;27787;44.594;11.046;2023-01-30T07:39:22;101649.31;;;1.75;74.53
42125;BME280;27787;44.594;11.046;2023-01-30T07:42:07;101644.13;;;1.75;74.46
42125;BME280;27787;44.594;11.046;2023-01-30T07:44:51;101641.97;;;1.68;74.99
42125;BME280;27787;44.594;11.046;2023-01-30T07:47:35;101641.47;;;1.59;76.00
42125;BME280;27787;44.594;11.046;2023-01-30T07:50:20;101646.81;;;1.62;76.86
42125;BME280;27787;44.594;11.046;2023-01-30T07:53:05;101639.72;;;1.74;76.86
42125;BME280;27787;44.594;11.046;2023-01-30T07:55:50;101647.41;;;1.87;76.78
42125;BME280;27787;44.594;11.046;2023-01-30T07:58:34;101651.69;;;2.01;76.57
42125;BME280;27787;44.594;11.046;2023-01-30T08:01:19;101648.13;;;2.16;76.10
42125;BME280;27787;44.594;11.046;2023-01-30T08:04:03;101634.72;;;2.24;75.26
42125;BME280;27787;44.594;11.046;2023-01-30T08:06:47;101634.81;;;2.26;74.85
42125;BME280;27787;44.594;11.046;2023-01-30T08:09:32;101638.16;;;2.23;75.97
42125;BME280;27787;44.594;11.046;2023-01-30T08:12:16;101642.31;;;2.36;75.96
42125;BME280;27787;44.594;11.046;2023-01-30T08:15:00;101636.22;;;2.52;75.52
42125;BME280;27787;44.594;11.046;2023-01-30T08:17:52;101626.53;;;2.65;74.85
42125;BME280;27787;44.594;11.046;2023-01-30T08:20:36;101612.69;;;2.66;75.14
42125;BME280;27787;44.594;11.046;2023-01-30T08:23:20;101614.25;;;2.63;75.59
42125;BME280;27787;44.594;11.046;2023-01-30T08:26:04;101613.97;;;2.58;75.57
42125;BME280;27787;44.594;11.046;2023-01-30T08:28:49;101614.16;;;2.61;76.09
42125;BME280;27787;44.594;11.046;2023-01-30T08:31:33;101607.41;;;2.65;76.02
42125;BME280;27787;44.594;11.046;2023-01-30T08:34:17;101601.59;;;2.71;76.44
42125;BME280;27787;44.594;11.046;2023-01-30T08:37:01;101595.31;;;2.83;76.87
42125;BME280;27787;44.594;11.046;2023-01-30T08:39:46;101589.91;;;2.96;76.79
42125;BME280;27787;44.594;11.046;2023-01-30T08:42:30;101586.13;;;3.08;76.66
42125;BME280;27787;44.594;11.046;2023-01-30T08:45:14;101574.53;;;3.19;76.89
42125;BME280;27787;44.594;11.046;2023-01-30T08:48:00;101568.06;;;3.29;77.16
42125;BME280;27787;44.594;11.046;2023-01-30T08:50:44;101580.81;;;3.40;77.32
42125;BME280;27787;44.594;11.046;2023-01-30T08:53:29;101568.28;;;3.51;77.06
42125;BME280;27787;44.594;11.046;2023-01-30T08:56:12;101562.09;;;3.67;76.66
42125;BME280;27787;44.594;11.046;2023-01-30T08:58:56;101558.38;;;3.79;76.38
42125;BME280;27787;44.594;11.046;2023-01-30T09:01:41;101555.56;;;3.94;75.85
42125;BME280;27787;44.594;11.046;2023-01-30T09:04:28;101551.81;;;4.07;75.04
42125;BME280;27787;44.594;11.046;2023-01-30T09:07:12;101539.31;;;4.19;74.78
42125;BME280;27787;44.594;11.046;2023-01-30T09:09:56;101539.88;;;4.31;74.43
42125;BME280;27787;44.594;11.046;2023-01-30T09:12:40;101535.91;;;4.41;73.91
42125;BME280;27787;44.594;11.046;2023-01-30T09:15:25;101525.06;;;4.51;73.47
42125;BME280;27787;44.594;11.046;2023-01-30T09:18:09;101515.97;;;4.62;73.12
42125;BME280;27787;44.594;11.046;2023-01-30T09:21:01;101507.75;;;4.74;72.61
42125;BME280;27787;44.594;11.046;2023-01-30T09:23:46;101507.31;;;4.84;71.82
42125;BME280;27787;44.594;11.046;2023-01-30T09:26:30;101511.91;;;4.90;70.21
42125;BME280;27787;44.594;11.046;2023-01-30T09:29:14;101506.25;;;5.00;69.69
42125;BME280;27787;44.594;11.046;2023-01-30T09:31:58;101499.78;;;5.13;69.54
42125;BME280;27787;44.594;11.046;2023-01-30T09:34:43;101483.88;;;5.29;68.80
42125;BME280;27787;44.594;11.046;2023-01-30T09:37:27;101489.38;;;5.35;67.35
42125;BME280;27787;44.594;11.046;2023-01-30T09:40:14;101478.06;;;5.36;66.73
42125;BME280;27787;44.594;11.046;2023-01-30T09:58:03;101470.41;;;5.63;66.20
42125;BME280;27787;44.594;11.046;2023-01-30T10:00:48;101464.47;;;5.69;66.30
42125;BME280;27787;44.594;11.046;2023-01-30T10:03:53;101477.09;;;5.79;65.03
42125;BME280;27787;44.594;11.046;2023-01-30T10:06:45;101466.56;;;5.77;64.13
42125;BME280;27787;44.594;11.046;2023-01-30T10:13:32;101477.47;;;5.66;64.42
42125;BME280;27787;44.594;11.046;2023-01-30T10:16:27;101474.06;;;5.68;64.94
42125;BME280;27787;44.594;11.046;2023-01-30T10:22:32;101455.56;;;5.63;67.58
42125;BME280;27787;44.594;11.046;2023-01-30T10:25:32;101449.44;;;5.63;67.59
42125;BME280;27787;44.594;11.046;2023-01-30T10:28:23;101438.97;;;5.63;68.69
42125;BME280;27787;44.594;11.046;2023-01-30T10:31:12;101435.63;;;5.67;67.88
42125;BME280;27787;44.594;11.046;2023-01-30T10:34:00;101444.66;;;5.75;66.61
42125;BME280;27787;44.594;11.046;2023-01-30T10:36:53;101433.06;;;5.69;65.59
42125;BME280;27787;44.594;11.046;2023-01-30T10:39:47;101431.28;;;5.68;66.79
42125;BME280;27787;44.594;11.046;2023-01-30T10:45:35;101424.47;;;5.73;68.55
42125;BME280;27787;44.594;11.046;2023-01-30T10:51:36;101421.84;;;5.73;69.81
42125;BME280;27787;44.594;11.046;2023-01-30T10:57:48;101416.59;;;5.73;68.13
42125;BME280;27787;44.594;11.046;2023-01-30T11:00:39;101416.69;;;5.74;68.28
42125;BME280;27787;44.594;11.046;2023-01-30T11:03:45;101403.41;;;5.70;67.19
42125;BME280;27787;44.594;11.046;2023-01-30T11:06:31;101404.19;;;5.67;66.73
42125;BME280;27787;44.594;11.046;2023-01-30T11:09:16;101396.34;;;5.67;67.86
42125;BME280;27787;44.594;11.046;2023-01-30T11:12:01;101397.47;;;5.74;68.55
42125;BME280;27787;44.594;11.046;2023-01-30T11:15:00;101371.38;;;5.77;68.12
42125;BME280;27787;44.594;11.046;2023-01-30T11:17:47;101371.38;;;5.77;68.14
42125;BME280;27787;44.594;11.046;2023-01-30T11:20:39;101391.59;;;5.81;68.72
42125;BME280;27787;44.594;11.046;2023-01-30T11:23:26;101390.31;;;5.92;67.02
42125;BME280;27787;44.594;11.046;2023-01-30T11:29:28;101367.97;;;5.79;67.14
42125;BME280;27787;44.594;11.046;2023-01-30T11:32:27;101339.09;;;5.78;68.30
42125;BME280;27787;44.594;11.046;2023-01-30T11:38:38;101308.41;;;5.74;68.83
42125;BME280;27787;44.594;11.046;2023-01-30T11:41:22;101311.84;;;5.73;69.42
42125;BME280;27787;44.594;11.046;2023-01-30T11:44:08;101304.25;;;5.80;69.94
42125;BME280;27787;44.594;11.046;2023-01-30T11:46:53;101309.03;;;5.90;68.97
42125;BME280;27787;44.594;11.046;2023-01-30T11:49:42;101309.22;;;5.97;68.39
42125;BME280;27787;44.594;11.046;2023-01-30T11:52:32;101321.81;;;6.07;67.21
42125;BME280;27787;44.594;11.046;2023-01-30T11:55:18;101313.28;;;6.12;67.34
42125;BME280;27787;44.594;11.046;2023-01-30T11:58:06;101290.72;;;6.17;67.98
42125;BME280;27787;44.594;11.046;2023-01-30T12:00:51;101287.31;;;6.20;67.26
42125;BME280;27787;44.594;11.046;2023-01-30T12:03:44;101285.75;;;6.25;66.84
42125;BME280;27787;44.594;11.046;2023-01-30T12:06:33;101293.84;;;6.33;66.08
42125;BME280;27787;44.594;11.046;2023-01-30T12:09:31;101287.81;;;6.35;65.99
42125;BME280;27787;44.594;11.046;2023-01-30T12:12:35;101282.78;;;6.41;65.48
42125;BME280;27787;44.594;11.046;2023-01-30T12:15:36;101272.44;;;6.46;63.72
42125;BME280;27787;44.594;11.046;2023-01-30T12:18:34;101259.41;;;6.49;64.26
42125;BME280;27787;44.594;11.046;2023-01-30T12:21:51;101241.28;;;6.55;64.42
42125;BME280;27787;44.594;11.046;2023-01-30T12:24:56;101224.91;;;6.64;64.26
42125;BME280;27787;44.594;11.046;2023-01-30T12:27:53;101218.03;;;6.67;63.52
42125;BME280;27787;44.594;11.046;2023-01-30T12:30:48;101218.25;;;6.75;63.41
42125;BME280;27787;44.594;11.046;2023-01-30T12:33:34;101207.97;;;6.81;62.61
42125;BME280;27787;44.594;11.046;2023-01-30T12:39:42;101192.63;;;6.95;63.09
42125;BME280;27787;44.594;11.046;2023-01-30T12:46:01;101179.75;;;7.04;60.95
42125;BME280;27787;44.594;11.046;2023-01-30T12:49:21;101178.91;;;7.05;61.29
42125;BME280;27787;44.594;11.046;2023-01-30T13:04:42;101152.28;;;7.23;58.88
42125;BME280;27787;44.594;11.046;2023-01-30T13:14:17;101132.28;;;7.28;58.54
42125;BME280;27787;44.594;11.046;2023-01-30T13:24:00;101145.56;;;7.34;57.83
42125;BME280;27787;44.594;11.046;2023-01-30T13:26:48;101152.50;;;7.30;58.14
42125;BME280;27787;44.594;11.046;2023-01-30T13:29:38;101124.53;;;7.32;58.34
42125;BME280;27787;44.594;11.046;2023-01-30T13:32:32;101116.88;;;7.42;58.62
42125;BME280;27787;44.594;11.046;2023-01-30T13:35:22;101122.22;;;7.45;58.52
42125;BME280;27787;44.594;11.046;2023-01-30T13:38:13;101116.31;;;7.53;58.50
42125;BME280;27787;44.594;11.046;2023-01-30T13:41:01;101094.50;;;7.56;57.75
42125;BME280;27787;44.594;11.046;2023-01-30T13:43:50;101069.13;;;7.56;57.91
42125;BME280;27787;44.594;11.046;2023-01-30T13:46:36;101070.06;;;7.60;57.92
42125;BME280;27787;44.594;11.046;2023-01-30T13:49:46;101069.34;;;7.67;58.05
42125;BME280;27787;44.594;11.046;2023-01-30T14:04:44;101050.75;;;7.95;56.62
42125;BME280;27787;44.594;11.046;2023-01-30T14:07:39;101045.63;;;8.02;56.39
42125;BME280;27787;44.594;11.046;2023-01-30T14:10:25;101050.06;;;8.04;55.94
42125;BME280;27787;44.594;11.046;2023-01-30T14:13:13;101051.06;;;8.09;55.70
42125;BME280;27787;44.594;11.046;2023-01-30T14:16:03;101057.31;;;8.14;55.02
42125;BME280;27787;44.594;11.046;2023-01-30T14:18:49;101042.34;;;8.12;55.43
42125;BME280;27787;44.594;11.046;2023-01-30T14:21:33;101050.25;;;8.12;55.60
42125;BME280;27787;44.594;11.046;2023-01-30T14:24:21;101044.09;;;8.11;55.73
42125;BME280;27787;44.594;11.046;2023-01-30T14:27:25;101031.94;;;8.16;55.95
42125;BME280;27787;44.594;11.046;2023-01-30T14:39:30;101025.38;;;8.35;54.93
42125;BME280;27787;44.594;11.046;2023-01-30T14:42:43;101027.19;;;8.39;54.73
42125;BME280;27787;44.594;11.046;2023-01-30T14:45:49;101021.94;;;8.39;54.77
42125;BME280;27787;44.594;11.046;2023-01-30T14:54:28;101005.81;;;8.68;54.72
42125;BME280;27787;44.594;11.046;2023-01-30T14:57:24;100993.78;;;8.80;54.87
42125;BME280;27787;44.594;11.046;2023-01-30T15:00:20;100986.06;;;8.90;54.54
42125;BME280;27787;44.594;11.046;2023-01-30T15:03:13;100987.94;;;8.98;54.21
42125;BME280;27787;44.594;11.046;2023-01-30T15:06:01;100988.09;;;9.06;54.02
42125;BME280;27787;44.594;11.046;2023-01-30T15:08:46;100985.50;;;9.10;53.66
42125;BME280;27787;44.594;11.046;2023-01-30T15:11:31;100984.59;;;9.08;53.51
42125;BME280;27787;44.594;11.046;2023-01-30T15:14:26;100995.16;;;9.10;53.83
42125;BME280;27787;44.594;11.046;2023-01-30T15:17:37;100982.00;;;9.10;54.04
42125;BME280;27787;44.594;11.046;2023-01-30T15:20:33;100993.34;;;9.06;53.87
42125;BME280;27787;44.594;11.046;2023-01-30T15:32:18;100981.53;;;8.84;55.01
42125;BME280;27787;44.594;11.046;2023-01-30T15:38:00;100994.63;;;8.78;56.07
42125;BME280;27787;44.594;11.046;2023-01-30T15:40:44;100991.84;;;8.72;56.36
42125;BME280;27787;44.594;11.046;2023-01-30T15:47:21;101001.38;;;8.64;57.01
42125;BME280;27787;44.594;11.046;2023-01-30T15:50:09;101000.47;;;8.62;57.08
42125;BME280;27787;44.594;11.046;2023-01-30T15:52:54;101003.00;;;8.58;57.10
42125;BME280;27787;44.594;11.046;2023-01-30T15:55:42;100997.66;;;8.54;57.55
42125;BME280;27787;44.594;11.046;2023-01-30T15:58:27;100994.06;;;8.49;57.74
42125;BME280;27787;44.594;11.046;2023-01-30T16:01:17;100992.16;;;8.42;57.81
42125;BME280;27787;44.594;11.046;2023-01-30T16:04:02;100988.56;;;8.37;58.33
42125;BME280;27787;44.594;11.046;2023-01-30T16:06:50;100986.66;;;8.31;58.50
42125;BME280;27787;44.594;11.046;2023-01-30T16:09:35;100976.88;;;8.24;58.90
42125;BME280;27787;44.594;11.046;2023-01-30T16:12:24;100979.41;;;8.19;59.33
42125;BME280;27787;44.594;11.046;2023-01-30T16:15:13;100986.19;;;8.08;59.98
42125;BME280;27787;44.594;11.046;2023-01-30T16:21:03;100995.31;;;7.85;60.56
42125;BME280;27787;44.594;11.046;2023-01-30T16:23:54;100995.19;;;7.80;60.95
42125;BME280;27787;44.594;11.046;2023-01-30T16:26:42;100979.41;;;7.79;61.07
42125;BME280;27787;44.594;11.046;2023-01-30T16:29:30;100984.50;;;7.71;61.28
42125;BME280;27787;44.594;11.046;2023-01-30T16:32:15;100986.03;;;7.61;62.02
42125;BME280;27787;44.594;11.046;2023-01-30T16:38:36;100986.56;;;7.47;63.01
42125;BME280;27787;44.594;11.046;2023-01-30T16:41:35;100987.22;;;7.38;63.49
42125;BME280;27787;44.594;11.046;2023-01-30T16:44:29;100996.81;;;7.36;63.90
42125;BME280;27787;44.594;11.046;2023-01-30T16:47:28;101008.06;;;7.30;63.42
42125;BME280;27787;44.594;11.046;2023-01-30T16:50:20;101014.19;;;7.29;63.38
42125;BME280;27787;44.594;11.046;2023-01-30T16:53:12;101013.19;;;7.26;63.69
42125;BME280;27787;44.594;11.046;2023-01-30T16:56:05;101014.03;;;7.25;64.28
42125;BME280;27787;44.594;11.046;2023-01-30T16:58:55;101013.97;;;7.22;64.59
42125;BME280;27787;44.594;11.046;2023-01-30T17:01:40;101027.00;;;7.17;64.71
42125;BME280;27787;44.594;11.046;2023-01-30T17:04:29;101037.31;;;7.11;64.72